sensor_id;sensor_type;location;lat;lon;timestamp;P1;durP1;ratioP1;P2;durP2;ratioP2
29246;SDS011;16272;48.188;9.964;2022-10-28T00:01:07;10.15;;;4.05;;
29246;SDS011;16272;48.188;9.964;2022-10-28T00:03:52;10.50;;;4.50;;
29246;SDS011;16272;48.188;9.964;2022-10-28T00:08:47;12.87;;;4.27;;
29246;SDS011;16272;48.188;9.964;2022-10-28T00:11:16;13.38;;;4.00;;
29246;SDS011;16272;48.188;9.964;2022-10-28T00:13:43;10.33;;;3.97;;
29246;SDS011;16272;48.188;9.964;2022-10-28T00:16:17;10.25;;;4.03;;
29246;SDS011;16272;48.188;9.964;2022-10-28T00:18:44;10.77;;;4.20;;
29246;SDS011;16272;48.188;9.964;2022-10-28T00:21:14;10.48;;;4.22;;
29246;SDS011;16272;48.188;9.964;2022-10-28T00:23:41;10.32;;;3.78;;
29246;SDS011;16272;48.188;9.964;2022-10-28T00:26:07;10.10;;;3.60;;
29246;SDS011;16272;48.188;9.964;2022-10-28T00:28:41;12.27;;;3.90;;
29246;SDS011;16272;48.188;9.964;2022-10-28T00:31:09;10.60;;;4.17;;
29246;SDS011;16272;48.188;9.964;2022-10-28T00:33:36;10.80;;;3.70;;
29246;SDS011;16272;48.188;9.964;2022-10-28T00:36:17;10.47;;;4.00;;
29246;SDS011;16272;48.188;9.964;2022-10-28T00:38:48;10.88;;;3.75;;
29246;SDS011;16272;48.188;9.964;2022-10-28T00:41:16;11.25;;;4.15;;
29246;SDS011;16272;48.188;9.964;2022-10-28T00:43:50;8.15;;;3.65;;
29246;SDS011;16272;48.188;9.964;2022-10-28T00:48:54;10.83;;;4.47;;
29246;SDS011;16272;48.188;9.964;2022-10-28T00:51:26;10.82;;;4.00;;
29246;SDS011;16272;48.188;9.964;2022-10-28T00:53:53;10.20;;;4.20;;
29246;SDS011;16272;48.188;9.964;2022-10-28T00:56:20;10.57;;;3.78;;
29246;SDS011;16272;48.188;9.964;2022-10-28T00:58:48;10.27;;;3.80;;
29246;SDS011;16272;48.188;9.964;2022-10-28T01:01:14;9.07;;;3.67;;
29246;SDS011;16272;48.188;9.964;2022-10-28T01:03:40;10.13;;;3.58;;
29246;SDS011;16272;48.188;9.964;2022-10-28T01:06:05;9.57;;;3.53;;
29246;SDS011;16272;48.188;9.964;2022-10-28T01:08:31;9.40;;;3.40;;
29246;SDS011;16272;48.188;9.964;2022-10-28T01:11:12;8.50;;;3.60;;
29246;SDS011;16272;48.188;9.964;2022-10-28T01:16:45;9.80;;;4.10;;
29246;SDS011;16272;48.188;9.964;2022-10-28T01:30:26;9.63;;;4.03;;
29246;SDS011;16272;48.188;9.964;2022-10-28T01:33:07;12.48;;;4.00;;
29246;SDS011;16272;48.188;9.964;2022-10-28T01:35:50;11.05;;;3.90;;
29246;SDS011;16272;48.188;9.964;2022-10-28T01:43:44;9.97;;;3.57;;
29246;SDS011;16272;48.188;9.964;2022-10-28T01:46:13;13.82;;;3.83;;
29246;SDS011;16272;48.188;9.964;2022-10-28T01:48:46;10.57;;;3.90;;
29246;SDS011;16272;48.188;9.964;2022-10-28T01:53:59;9.27;;;4.30;;
29246;SDS011;16272;48.188;9.964;2022-10-28T01:56:29;9.23;;;3.63;;
29246;SDS011;16272;48.188;9.964;2022-10-28T01:58:58;9.75;;;3.72;;
29246;SDS011;16272;48.188;9.964;2022-10-28T02:01:24;9.15;;;3.40;;
29246;SDS011;16272;48.188;9.964;2022-10-28T02:03:53;10.85;;;3.42;;
29246;SDS011;16272;48.188;9.964;2022-10-28T02:06:19;9.80;;;3.63;;
29246;SDS011;16272;48.188;9.964;2022-10-28T02:17:41;10.52;;;3.33;;
29246;SDS011;16272;48.188;9.964;2022-10-28T02:19:53;10.30;;;3.17;;
29246;SDS011;16272;48.188;9.964;2022-10-28T02:22:41;10.52;;;3.45;;
29246;SDS011;16272;48.188;9.964;2022-10-28T02:27:48;9.13;;;3.15;;
29246;SDS011;16272;48.188;9.964;2022-10-28T02:33:33;11.93;;;3.63;;
29246;SDS011;16272;48.188;9.964;2022-10-28T02:36:03;10.25;;;3.40;;
29246;SDS011;16272;48.188;9.964;2022-10-28T02:38:53;8.13;;;3.50;;
29246;SDS011;16272;48.188;9.964;2022-10-28T02:43:48;8.93;;;3.50;;
29246;SDS011;16272;48.188;9.964;2022-10-28T02:46:17;11.65;;;3.60;;
29246;SDS011;16272;48.188;9.964;2022-10-28T02:48:55;8.43;;;3.30;;
29246;SDS011;16272;48.188;9.964;2022-10-28T02:51:27;8.50;;;3.38;;
29246;SDS011;16272;48.188;9.964;2022-10-28T02:56:47;10.85;;;3.20;;
29246;SDS011;16272;48.188;9.964;2022-10-28T02:59:34;9.43;;;3.42;;
29246;SDS011;16272;48.188;9.964;2022-10-28T03:02:00;9.57;;;3.40;;
29246;SDS011;16272;48.188;9.964;2022-10-28T03:04:25;9.83;;;3.30;;
29246;SDS011;16272;48.188;9.964;2022-10-28T03:06:50;10.83;;;3.20;;
29246;SDS011;16272;48.188;9.964;2022-10-28T03:09:16;9.37;;;3.80;;
29246;SDS011;16272;48.188;9.964;2022-10-28T03:11:41;11.60;;;3.60;;
29246;SDS011;16272;48.188;9.964;2022-10-28T03:14:06;10.55;;;3.85;;
29246;SDS011;16272;48.188;9.964;2022-10-28T03:16:32;9.47;;;4.10;;
29246;SDS011;16272;48.188;9.964;2022-10-28T03:18:57;8.83;;;2.90;;
29246;SDS011;16272;48.188;9.964;2022-10-28T03:21:22;10.10;;;3.90;;
29246;SDS011;16272;48.188;9.964;2022-10-28T03:23:48;10.13;;;3.40;;
29246;SDS011;16272;48.188;9.964;2022-10-28T03:26:13;9.53;;;3.03;;
29246;SDS011;16272;48.188;9.964;2022-10-28T03:28:38;10.75;;;3.30;;
29246;SDS011;16272;48.188;9.964;2022-10-28T03:31:04;9.07;;;2.97;;
29246;SDS011;16272;48.188;9.964;2022-10-28T03:33:29;10.00;;;3.07;;
29246;SDS011;16272;48.188;9.964;2022-10-28T03:35:55;9.17;;;3.30;;
29246;SDS011;16272;48.188;9.964;2022-10-28T03:38:20;8.55;;;3.13;;
29246;SDS011;16272;48.188;9.964;2022-10-28T03:40:46;9.83;;;3.20;;
29246;SDS011;16272;48.188;9.964;2022-10-28T03:43:12;10.07;;;3.20;;
29246;SDS011;16272;48.188;9.964;2022-10-28T03:45:38;8.87;;;3.00;;
29246;SDS011;16272;48.188;9.964;2022-10-28T03:48:03;9.67;;;3.03;;
29246;SDS011;16272;48.188;9.964;2022-10-28T03:50:29;8.07;;;3.10;;
29246;SDS011;16272;48.188;9.964;2022-10-28T03:52:54;12.37;;;3.30;;
29246;SDS011;16272;48.188;9.964;2022-10-28T03:55:19;8.13;;;2.77;;
29246;SDS011;16272;48.188;9.964;2022-10-28T03:57:47;10.20;;;3.00;;
29246;SDS011;16272;48.188;9.964;2022-10-28T04:00:13;8.77;;;3.20;;
29246;SDS011;16272;48.188;9.964;2022-10-28T04:02:39;10.68;;;3.55;;
29246;SDS011;16272;48.188;9.964;2022-10-28T04:05:04;10.10;;;3.13;;
29246;SDS011;16272;48.188;9.964;2022-10-28T04:07:31;8.57;;;3.30;;
29246;SDS011;16272;48.188;9.964;2022-10-28T04:09:56;11.82;;;3.42;;
29246;SDS011;16272;48.188;9.964;2022-10-28T04:12:21;9.10;;;3.20;;
29246;SDS011;16272;48.188;9.964;2022-10-28T04:14:47;8.70;;;3.00;;
29246;SDS011;16272;48.188;9.964;2022-10-28T04:17:12;9.70;;;3.20;;
29246;SDS011;16272;48.188;9.964;2022-10-28T04:19:37;11.27;;;3.40;;
29246;SDS011;16272;48.188;9.964;2022-10-28T04:22:03;11.30;;;3.53;;
29246;SDS011;16272;48.188;9.964;2022-10-28T04:24:28;8.47;;;3.20;;
29246;SDS011;16272;48.188;9.964;2022-10-28T04:26:53;8.03;;;3.33;;
29246;SDS011;16272;48.188;9.964;2022-10-28T04:29:19;9.10;;;3.30;;
29246;SDS011;16272;48.188;9.964;2022-10-28T04:31:44;8.97;;;3.23;;
29246;SDS011;16272;48.188;9.964;2022-10-28T04:34:09;9.17;;;3.40;;
29246;SDS011;16272;48.188;9.964;2022-10-28T04:36:35;11.23;;;3.33;;
29246;SDS011;16272;48.188;9.964;2022-10-28T04:39:00;9.40;;;2.77;;
29246;SDS011;16272;48.188;9.964;2022-10-28T04:41:25;9.53;;;2.80;;
29246;SDS011;16272;48.188;9.964;2022-10-28T04:43:51;9.20;;;3.10;;
29246;SDS011;16272;48.188;9.964;2022-10-28T04:46:17;8.15;;;2.60;;
29246;SDS011;16272;48.188;9.964;2022-10-28T04:48:42;11.67;;;3.00;;
29246;SDS011;16272;48.188;9.964;2022-10-28T04:51:08;7.93;;;2.53;;
29246;SDS011;16272;48.188;9.964;2022-10-28T04:53:33;8.37;;;2.77;;
29246;SDS011;16272;48.188;9.964;2022-10-28T04:55:58;7.60;;;2.53;;
29246;SDS011;16272;48.188;9.964;2022-10-28T04:58:25;8.13;;;3.08;;
29246;SDS011;16272;48.188;9.964;2022-10-28T05:00:50;9.77;;;2.83;;
29246;SDS011;16272;48.188;9.964;2022-10-28T05:03:16;10.30;;;3.10;;
29246;SDS011;16272;48.188;9.964;2022-10-28T05:05:41;15.30;;;3.05;;
29246;SDS011;16272;48.188;9.964;2022-10-28T05:08:06;9.77;;;3.30;;
29246;SDS011;16272;48.188;9.964;2022-10-28T05:10:32;9.63;;;3.67;;
29246;SDS011;16272;48.188;9.964;2022-10-28T05:12:57;13.37;;;4.07;;
29246;SDS011;16272;48.188;9.964;2022-10-28T05:15:23;10.15;;;3.92;;
29246;SDS011;16272;48.188;9.964;2022-10-28T05:17:51;13.40;;;4.07;;
29246;SDS011;16272;48.188;9.964;2022-10-28T05:20:17;10.57;;;4.00;;
29246;SDS011;16272;48.188;9.964;2022-10-28T05:22:47;12.40;;;4.03;;
29246;SDS011;16272;48.188;9.964;2022-10-28T05:25:14;11.70;;;3.65;;
29246;SDS011;16272;48.188;9.964;2022-10-28T05:27:40;11.32;;;3.80;;
29246;SDS011;16272;48.188;9.964;2022-10-28T05:30:06;7.77;;;3.30;;
29246;SDS011;16272;48.188;9.964;2022-10-28T05:32:32;10.82;;;3.17;;
29246;SDS011;16272;48.188;9.964;2022-10-28T05:34:58;8.73;;;2.73;;
29246;SDS011;16272;48.188;9.964;2022-10-28T05:37:23;8.57;;;2.70;;
29246;SDS011;16272;48.188;9.964;2022-10-28T05:39:48;10.70;;;2.90;;
29246;SDS011;16272;48.188;9.964;2022-10-28T05:42:14;7.83;;;2.83;;
29246;SDS011;16272;48.188;9.964;2022-10-28T05:44:39;11.80;;;3.03;;
29246;SDS011;16272;48.188;9.964;2022-10-28T05:47:04;9.20;;;3.10;;
29246;SDS011;16272;48.188;9.964;2022-10-28T05:49:29;10.23;;;3.15;;
29246;SDS011;16272;48.188;9.964;2022-10-28T05:51:55;8.57;;;3.13;;
29246;SDS011;16272;48.188;9.964;2022-10-28T05:54:20;12.47;;;3.57;;
29246;SDS011;16272;48.188;9.964;2022-10-28T05:56:45;9.47;;;3.67;;
29246;SDS011;16272;48.188;9.964;2022-10-28T05:59:11;11.97;;;4.00;;
29246;SDS011;16272;48.188;9.964;2022-10-28T06:01:36;14.67;;;3.70;;
29246;SDS011;16272;48.188;9.964;2022-10-28T06:04:03;9.48;;;3.95;;
29246;SDS011;16272;48.188;9.964;2022-10-28T06:06:29;10.30;;;3.90;;
29246;SDS011;16272;48.188;9.964;2022-10-28T06:08:54;9.30;;;3.13;;
29246;SDS011;16272;48.188;9.964;2022-10-28T06:11:20;9.10;;;2.70;;
29246;SDS011;16272;48.188;9.964;2022-10-28T06:13:45;8.60;;;3.03;;
29246;SDS011;16272;48.188;9.964;2022-10-28T06:16:10;9.00;;;3.17;;
29246;SDS011;16272;48.188;9.964;2022-10-28T06:18:35;9.40;;;3.00;;
29246;SDS011;16272;48.188;9.964;2022-10-28T06:21:01;8.57;;;3.33;;
29246;SDS011;16272;48.188;9.964;2022-10-28T06:23:26;8.97;;;3.17;;
29246;SDS011;16272;48.188;9.964;2022-10-28T06:25:59;7.43;;;2.90;;
29246;SDS011;16272;48.188;9.964;2022-10-28T06:28:25;8.93;;;2.80;;
29246;SDS011;16272;48.188;9.964;2022-10-28T06:30:51;8.13;;;2.75;;
29246;SDS011;16272;48.188;9.964;2022-10-28T06:33:16;7.90;;;2.10;;
29246;SDS011;16272;48.188;9.964;2022-10-28T06:35:42;13.10;;;2.93;;
29246;SDS011;16272;48.188;9.964;2022-10-28T06:38:07;9.63;;;2.97;;
29246;SDS011;16272;48.188;9.964;2022-10-28T06:40:33;8.13;;;3.00;;
29246;SDS011;16272;48.188;9.964;2022-10-28T06:42:59;8.07;;;2.90;;
29246;SDS011;16272;48.188;9.964;2022-10-28T06:45:25;9.40;;;3.40;;
29246;SDS011;16272;48.188;9.964;2022-10-28T06:47:55;10.60;;;3.50;;
29246;SDS011;16272;48.188;9.964;2022-10-28T06:50:21;10.17;;;3.37;;
29246;SDS011;16272;48.188;9.964;2022-10-28T06:52:47;11.23;;;3.30;;
29246;SDS011;16272;48.188;9.964;2022-10-28T06:55:12;10.07;;;3.50;;
29246;SDS011;16272;48.188;9.964;2022-10-28T06:57:37;10.07;;;3.70;;
29246;SDS011;16272;48.188;9.964;2022-10-28T07:00:03;9.20;;;3.63;;
29246;SDS011;16272;48.188;9.964;2022-10-28T07:02:29;9.50;;;3.25;;
29246;SDS011;16272;48.188;9.964;2022-10-28T07:04:54;8.40;;;3.07;;
29246;SDS011;16272;48.188;9.964;2022-10-28T07:07:19;8.30;;;3.00;;
29246;SDS011;16272;48.188;9.964;2022-10-28T07:09:45;8.77;;;3.23;;
29246;SDS011;16272;48.188;9.964;2022-10-28T07:12:10;9.63;;;3.00;;
29246;SDS011;16272;48.188;9.964;2022-10-28T07:14:36;9.48;;;3.15;;
29246;SDS011;16272;48.188;9.964;2022-10-28T07:17:01;8.97;;;3.10;;
29246;SDS011;16272;48.188;9.964;2022-10-28T07:19:27;8.73;;;2.83;;
29246;SDS011;16272;48.188;9.964;2022-10-28T07:21:52;11.93;;;2.70;;
29246;SDS011;16272;48.188;9.964;2022-10-28T07:24:17;8.63;;;2.90;;
29246;SDS011;16272;48.188;9.964;2022-10-28T07:26:43;7.20;;;2.90;;
29246;SDS011;16272;48.188;9.964;2022-10-28T07:29:08;7.80;;;2.87;;
29246;SDS011;16272;48.188;9.964;2022-10-28T07:31:33;9.93;;;2.90;;
29246;SDS011;16272;48.188;9.964;2022-10-28T07:33:59;9.70;;;3.30;;
29246;SDS011;16272;48.188;9.964;2022-10-28T07:36:25;7.60;;;2.77;;
29246;SDS011;16272;48.188;9.964;2022-10-28T07:38:51;10.88;;;3.17;;
29246;SDS011;16272;48.188;9.964;2022-10-28T07:41:17;8.07;;;3.22;;
29246;SDS011;16272;48.188;9.964;2022-10-28T07:43:44;12.90;;;3.20;;
29246;SDS011;16272;48.188;9.964;2022-10-28T07:46:10;9.73;;;2.92;;
29246;SDS011;16272;48.188;9.964;2022-10-28T07:48:35;12.27;;;3.60;;
29246;SDS011;16272;48.188;9.964;2022-10-28T07:51:02;7.70;;;3.20;;
29246;SDS011;16272;48.188;9.964;2022-10-28T07:53:29;9.23;;;3.53;;
29246;SDS011;16272;48.188;9.964;2022-10-28T07:55:55;9.93;;;3.80;;
29246;SDS011;16272;48.188;9.964;2022-10-28T07:58:25;9.27;;;3.28;;
29246;SDS011;16272;48.188;9.964;2022-10-28T08:00:51;11.67;;;3.60;;
29246;SDS011;16272;48.188;9.964;2022-10-28T08:03:17;9.40;;;3.60;;
29246;SDS011;16272;48.188;9.964;2022-10-28T08:05:43;9.98;;;3.80;;
29246;SDS011;16272;48.188;9.964;2022-10-28T08:08:08;9.03;;;3.60;;
29246;SDS011;16272;48.188;9.964;2022-10-28T08:10:34;8.73;;;3.57;;
29246;SDS011;16272;48.188;9.964;2022-10-28T08:13:00;9.00;;;3.20;;
29246;SDS011;16272;48.188;9.964;2022-10-28T08:15:26;10.18;;;3.03;;
29246;SDS011;16272;48.188;9.964;2022-10-28T08:17:53;11.30;;;2.88;;
29246;SDS011;16272;48.188;9.964;2022-10-28T08:20:19;9.05;;;2.65;;
29246;SDS011;16272;48.188;9.964;2022-10-28T08:22:44;8.80;;;2.50;;
29246;SDS011;16272;48.188;9.964;2022-10-28T08:25:10;7.70;;;2.63;;
29246;SDS011;16272;48.188;9.964;2022-10-28T08:27:35;9.97;;;3.00;;
29246;SDS011;16272;48.188;9.964;2022-10-28T08:30:00;12.47;;;2.60;;
29246;SDS011;16272;48.188;9.964;2022-10-28T08:32:26;7.32;;;2.40;;
29246;SDS011;16272;48.188;9.964;2022-10-28T08:34:51;7.70;;;2.33;;
29246;SDS011;16272;48.188;9.964;2022-10-28T08:37:16;9.43;;;2.70;;
29246;SDS011;16272;48.188;9.964;2022-10-28T08:39:42;9.30;;;2.50;;
29246;SDS011;16272;48.188;9.964;2022-10-28T08:50:16;9.00;;;2.42;;
29246;SDS011;16272;48.188;9.964;2022-10-28T08:55:18;7.53;;;2.58;;
29246;SDS011;16272;48.188;9.964;2022-10-28T08:57:48;8.73;;;2.70;;
29246;SDS011;16272;48.188;9.964;2022-10-28T09:05:40;7.40;;;2.40;;
29246;SDS011;16272;48.188;9.964;2022-10-28T09:08:23;7.30;;;2.08;;
29246;SDS011;16272;48.188;9.964;2022-10-28T09:13:23;8.30;;;2.33;;
29246;SDS011;16272;48.188;9.964;2022-10-28T09:16:05;8.55;;;2.70;;
29246;SDS011;16272;48.188;9.964;2022-10-28T09:18:53;7.00;;;2.20;;
29246;SDS011;16272;48.188;9.964;2022-10-28T09:29:47;8.27;;;2.40;;
29246;SDS011;16272;48.188;9.964;2022-10-28T09:32:42;7.40;;;2.20;;
29246;SDS011;16272;48.188;9.964;2022-10-28T09:35:17;8.27;;;2.60;;
29246;SDS011;16272;48.188;9.964;2022-10-28T09:37:48;7.78;;;2.58;;
29246;SDS011;16272;48.188;9.964;2022-10-28T09:40:20;7.35;;;2.08;;
29246;SDS011;16272;48.188;9.964;2022-10-28T09:45:34;8.33;;;2.00;;
29246;SDS011;16272;48.188;9.964;2022-10-28T09:48:13;13.25;;;3.10;;
29246;SDS011;16272;48.188;9.964;2022-10-28T09:50:44;8.68;;;2.45;;
29246;SDS011;16272;48.188;9.964;2022-10-28T09:55:54;8.35;;;2.45;;
29246;SDS011;16272;48.188;9.964;2022-10-28T09:58:21;8.03;;;2.40;;
29246;SDS011;16272;48.188;9.964;2022-10-28T10:00:47;8.50;;;2.53;;
29246;SDS011;16272;48.188;9.964;2022-10-28T10:03:13;6.60;;;2.33;;
29246;SDS011;16272;48.188;9.964;2022-10-28T10:05:41;7.90;;;2.42;;
29246;SDS011;16272;48.188;9.964;2022-10-28T10:08:12;7.80;;;2.40;;
29246;SDS011;16272;48.188;9.964;2022-10-28T10:10:51;10.13;;;2.45;;
29246;SDS011;16272;48.188;9.964;2022-10-28T10:13:26;7.78;;;2.60;;
29246;SDS011;16272;48.188;9.964;2022-10-28T10:15:58;9.20;;;2.30;;
29246;SDS011;16272;48.188;9.964;2022-10-28T10:18:30;7.10;;;2.22;;
29246;SDS011;16272;48.188;9.964;2022-10-28T10:20:59;7.57;;;2.73;;
29246;SDS011;16272;48.188;9.964;2022-10-28T10:23:35;8.80;;;2.60;;
29246;SDS011;16272;48.188;9.964;2022-10-28T10:26:03;7.43;;;2.10;;
29246;SDS011;16272;48.188;9.964;2022-10-28T10:28:30;11.27;;;2.72;;
29246;SDS011;16272;48.188;9.964;2022-10-28T10:30:59;10.27;;;2.53;;
29246;SDS011;16272;48.188;9.964;2022-10-28T10:33:33;9.17;;;2.63;;
29246;SDS011;16272;48.188;9.964;2022-10-28T10:36:02;6.55;;;2.47;;
29246;SDS011;16272;48.188;9.964;2022-10-28T10:38:36;7.63;;;2.50;;
29246;SDS011;16272;48.188;9.964;2022-10-28T10:41:10;8.02;;;2.25;;
29246;SDS011;16272;48.188;9.964;2022-10-28T10:43:35;7.10;;;2.47;;
29246;SDS011;16272;48.188;9.964;2022-10-28T10:46:34;8.17;;;2.60;;
29246;SDS011;16272;48.188;9.964;2022-10-28T10:49:05;8.23;;;2.50;;
29246;SDS011;16272;48.188;9.964;2022-10-28T10:51:38;6.90;;;2.28;;
29246;SDS011;16272;48.188;9.964;2022-10-28T10:54:11;9.55;;;2.35;;
29246;SDS011;16272;48.188;9.964;2022-10-28T10:56:39;9.00;;;2.10;;
29246;SDS011;16272;48.188;9.964;2022-10-28T10:59:04;10.40;;;2.53;;
29246;SDS011;16272;48.188;9.964;2022-10-28T11:01:40;10.27;;;3.33;;
29246;SDS011;16272;48.188;9.964;2022-10-28T11:04:06;9.53;;;2.87;;
29246;SDS011;16272;48.188;9.964;2022-10-28T11:06:40;8.53;;;2.90;;
29246;SDS011;16272;48.188;9.964;2022-10-28T11:11:51;9.85;;;2.92;;
29246;SDS011;16272;48.188;9.964;2022-10-28T11:14:20;8.70;;;2.63;;
29246;SDS011;16272;48.188;9.964;2022-10-28T11:16:49;8.15;;;3.15;;
29246;SDS011;16272;48.188;9.964;2022-10-28T11:19:20;9.27;;;2.77;;
29246;SDS011;16272;48.188;9.964;2022-10-28T11:24:50;10.45;;;2.58;;
29246;SDS011;16272;48.188;9.964;2022-10-28T11:27:42;10.13;;;2.67;;
29246;SDS011;16272;48.188;9.964;2022-10-28T11:30:12;8.65;;;2.72;;
29246;SDS011;16272;48.188;9.964;2022-10-28T11:40:36;9.18;;;2.40;;
29246;SDS011;16272;48.188;9.964;2022-10-28T11:51:07;8.02;;;2.67;;
29246;SDS011;16272;48.188;9.964;2022-10-28T11:54:22;8.02;;;2.40;;
29246;SDS011;16272;48.188;9.964;2022-10-28T12:05:53;7.55;;;2.65;;
29246;SDS011;16272;48.188;9.964;2022-10-28T12:08:14;8.70;;;2.38;;
29246;SDS011;16272;48.188;9.964;2022-10-28T12:13:26;8.13;;;2.20;;
29246;SDS011;16272;48.188;9.964;2022-10-28T12:15:54;7.63;;;2.10;;
29246;SDS011;16272;48.188;9.964;2022-10-28T12:24:03;7.32;;;1.98;;
29246;SDS011;16272;48.188;9.964;2022-10-28T12:26:41;8.73;;;2.30;;
29246;SDS011;16272;48.188;9.964;2022-10-28T12:29:23;8.30;;;2.00;;
29246;SDS011;16272;48.188;9.964;2022-10-28T12:31:56;8.65;;;2.20;;
29246;SDS011;16272;48.188;9.964;2022-10-28T12:34:33;8.43;;;2.05;;
29246;SDS011;16272;48.188;9.964;2022-10-28T12:37:10;11.77;;;2.42;;
29246;SDS011;16272;48.188;9.964;2022-10-28T12:39:43;9.10;;;2.10;;
29246;SDS011;16272;48.188;9.964;2022-10-28T12:42:26;8.70;;;2.42;;
29246;SDS011;16272;48.188;9.964;2022-10-28T12:44:56;7.60;;;2.05;;
29246;SDS011;16272;48.188;9.964;2022-10-28T12:55:44;8.13;;;2.28;;
29246;SDS011;16272;48.188;9.964;2022-10-28T12:58:20;10.38;;;2.13;;
29246;SDS011;16272;48.188;9.964;2022-10-28T13:00:52;9.75;;;2.00;;
29246;SDS011;16272;48.188;9.964;2022-10-28T13:03:22;9.55;;;2.00;;
29246;SDS011;16272;48.188;9.964;2022-10-28T13:05:50;9.83;;;2.30;;
29246;SDS011;16272;48.188;9.964;2022-10-28T13:27:58;7.50;;;1.90;;
29246;SDS011;16272;48.188;9.964;2022-10-28T13:30:24;12.50;;;2.15;;
29246;SDS011;16272;48.188;9.964;2022-10-28T13:32:59;8.80;;;2.55;;
29246;SDS011;16272;48.188;9.964;2022-10-28T13:35:28;10.30;;;2.30;;
29246;SDS011;16272;48.188;9.964;2022-10-28T13:37:55;8.02;;;2.20;;
29246;SDS011;16272;48.188;9.964;2022-10-28T13:43:19;8.98;;;2.10;;
29246;SDS011;16272;48.188;9.964;2022-10-28T13:46:05;6.70;;;1.83;;
29246;SDS011;16272;48.188;9.964;2022-10-28T13:56:15;8.30;;;1.98;;
29246;SDS011;16272;48.188;9.964;2022-10-28T13:58:50;51.43;;;5.07;;
29246;SDS011;16272;48.188;9.964;2022-10-28T14:04:18;36.80;;;4.13;;
29246;SDS011;16272;48.188;9.964;2022-10-28T14:06:47;19.48;;;3.90;;
29246;SDS011;16272;48.188;9.964;2022-10-28T14:09:22;20.70;;;3.07;;
29246;SDS011;16272;48.188;9.964;2022-10-28T14:14:51;23.65;;;3.78;;
29246;SDS011;16272;48.188;9.964;2022-10-28T14:17:57;28.63;;;4.20;;
29246;SDS011;16272;48.188;9.964;2022-10-28T14:22:54;9.95;;;2.47;;
29246;SDS011;16272;48.188;9.964;2022-10-28T14:25:55;10.05;;;2.67;;
29246;SDS011;16272;48.188;9.964;2022-10-28T14:39:07;20.10;;;2.72;;
29246;SDS011;16272;48.188;9.964;2022-10-28T14:52:43;13.68;;;2.92;;
29246;SDS011;16272;48.188;9.964;2022-10-28T14:57:53;21.58;;;3.65;;
29246;SDS011;16272;48.188;9.964;2022-10-28T15:00:36;14.63;;;3.40;;
29246;SDS011;16272;48.188;9.964;2022-10-28T15:03:08;16.65;;;3.20;;
29246;SDS011;16272;48.188;9.964;2022-10-28T15:05:35;19.63;;;3.55;;
29246;SDS011;16272;48.188;9.964;2022-10-28T15:08:01;12.53;;;3.00;;
29246;SDS011;16272;48.188;9.964;2022-10-28T15:10:28;13.43;;;5.82;;
29246;SDS011;16272;48.188;9.964;2022-10-28T15:12:56;9.90;;;4.18;;
29246;SDS011;16272;48.188;9.964;2022-10-28T15:15:26;9.87;;;3.10;;
29246;SDS011;16272;48.188;9.964;2022-10-28T15:17:53;8.20;;;2.78;;
29246;SDS011;16272;48.188;9.964;2022-10-28T15:22:47;10.50;;;2.53;;
29246;SDS011;16272;48.188;9.964;2022-10-28T15:25:13;10.90;;;2.60;;
29246;SDS011;16272;48.188;9.964;2022-10-28T15:27:40;9.55;;;2.30;;
29246;SDS011;16272;48.188;9.964;2022-10-28T15:30:19;7.97;;;2.37;;
29246;SDS011;16272;48.188;9.964;2022-10-28T15:32:48;7.60;;;2.22;;
29246;SDS011;16272;48.188;9.964;2022-10-28T15:37:59;9.18;;;2.45;;
29246;SDS011;16272;48.188;9.964;2022-10-28T15:45:41;8.68;;;2.00;;
29246;SDS011;16272;48.188;9.964;2022-10-28T15:48:11;8.20;;;2.20;;
29246;SDS011;16272;48.188;9.964;2022-10-28T15:50:38;10.20;;;2.38;;
29246;SDS011;16272;48.188;9.964;2022-10-28T15:55:39;9.68;;;2.10;;
29246;SDS011;16272;48.188;9.964;2022-10-28T16:00:35;9.50;;;2.37;;
29246;SDS011;16272;48.188;9.964;2022-10-28T16:05:51;8.17;;;2.03;;
29246;SDS011;16272;48.188;9.964;2022-10-28T16:08:21;8.57;;;1.90;;
29246;SDS011;16272;48.188;9.964;2022-10-28T16:10:53;10.10;;;2.72;;
29246;SDS011;16272;48.188;9.964;2022-10-28T16:16:14;8.35;;;2.38;;
29246;SDS011;16272;48.188;9.964;2022-10-28T16:18:48;7.70;;;2.23;;
29246;SDS011;16272;48.188;9.964;2022-10-28T16:21:23;8.93;;;2.40;;
29246;SDS011;16272;48.188;9.964;2022-10-28T16:23:53;7.18;;;2.17;;
29246;SDS011;16272;48.188;9.964;2022-10-28T16:26:23;7.47;;;2.10;;
29246;SDS011;16272;48.188;9.964;2022-10-28T16:28:49;7.85;;;1.92;;
29246;SDS011;16272;48.188;9.964;2022-10-28T16:31:15;9.13;;;2.07;;
29246;SDS011;16272;48.188;9.964;2022-10-28T16:33:42;7.55;;;2.28;;
29246;SDS011;16272;48.188;9.964;2022-10-28T16:36:08;10.70;;;2.27;;
29246;SDS011;16272;48.188;9.964;2022-10-28T16:38:34;8.15;;;2.40;;
29246;SDS011;16272;48.188;9.964;2022-10-28T16:41:00;11.48;;;2.58;;
29246;SDS011;16272;48.188;9.964;2022-10-28T16:43:27;8.93;;;2.53;;
29246;SDS011;16272;48.188;9.964;2022-10-28T16:45:54;9.13;;;2.60;;
29246;SDS011;16272;48.188;9.964;2022-10-28T16:48:22;10.13;;;2.35;;
29246;SDS011;16272;48.188;9.964;2022-10-28T16:50:50;10.35;;;2.45;;
29246;SDS011;16272;48.188;9.964;2022-10-28T16:53:17;8.38;;;2.42;;
29246;SDS011;16272;48.188;9.964;2022-10-28T16:55:43;8.90;;;2.70;;
29246;SDS011;16272;48.188;9.964;2022-10-28T16:58:08;13.07;;;2.63;;
29246;SDS011;16272;48.188;9.964;2022-10-28T17:00:34;7.17;;;2.40;;
29246;SDS011;16272;48.188;9.964;2022-10-28T17:03:00;10.82;;;2.45;;
29246;SDS011;16272;48.188;9.964;2022-10-28T17:05:26;9.80;;;2.60;;
29246;SDS011;16272;48.188;9.964;2022-10-28T17:07:51;8.48;;;2.60;;
29246;SDS011;16272;48.188;9.964;2022-10-28T17:10:20;8.45;;;2.50;;
29246;SDS011;16272;48.188;9.964;2022-10-28T17:12:46;8.03;;;2.40;;
29246;SDS011;16272;48.188;9.964;2022-10-28T17:15:11;8.80;;;2.60;;
29246;SDS011;16272;48.188;9.964;2022-10-28T17:17:37;8.73;;;2.43;;
29246;SDS011;16272;48.188;9.964;2022-10-28T17:20:03;7.10;;;2.30;;
29246;SDS011;16272;48.188;9.964;2022-10-28T17:22:29;10.25;;;2.85;;
29246;SDS011;16272;48.188;9.964;2022-10-28T17:24:55;8.40;;;2.97;;
29246;SDS011;16272;48.188;9.964;2022-10-28T17:27:20;9.33;;;2.90;;
29246;SDS011;16272;48.188;9.964;2022-10-28T17:29:45;10.53;;;3.43;;
29246;SDS011;16272;48.188;9.964;2022-10-28T17:32:11;9.40;;;3.00;;
29246;SDS011;16272;48.188;9.964;2022-10-28T17:34:36;10.13;;;3.20;;
29246;SDS011;16272;48.188;9.964;2022-10-28T17:37:02;8.80;;;2.83;;
29246;SDS011;16272;48.188;9.964;2022-10-28T17:39:28;9.80;;;2.83;;
29246;SDS011;16272;48.188;9.964;2022-10-28T17:41:54;13.75;;;3.05;;
29246;SDS011;16272;48.188;9.964;2022-10-28T17:44:19;8.77;;;3.00;;
29246;SDS011;16272;48.188;9.964;2022-10-28T17:46:48;9.53;;;2.90;;
29246;SDS011;16272;48.188;9.964;2022-10-28T17:49:13;8.73;;;2.88;;
29246;SDS011;16272;48.188;9.964;2022-10-28T17:51:39;9.23;;;2.80;;
29246;SDS011;16272;48.188;9.964;2022-10-28T17:54:05;10.13;;;2.57;;
29246;SDS011;16272;48.188;9.964;2022-10-28T17:56:34;10.57;;;2.70;;
29246;SDS011;16272;48.188;9.964;2022-10-28T17:59:00;9.27;;;2.83;;
29246;SDS011;16272;48.188;9.964;2022-10-28T18:01:26;7.60;;;2.67;;
29246;SDS011;16272;48.188;9.964;2022-10-28T18:03:52;8.10;;;2.70;;
29246;SDS011;16272;48.188;9.964;2022-10-28T18:06:17;9.68;;;2.88;;
29246;SDS011;16272;48.188;9.964;2022-10-28T18:08:42;8.90;;;2.37;;
29246;SDS011;16272;48.188;9.964;2022-10-28T18:11:09;8.90;;;2.70;;
29246;SDS011;16272;48.188;9.964;2022-10-28T18:13:37;9.95;;;2.88;;
29246;SDS011;16272;48.188;9.964;2022-10-28T18:16:04;8.52;;;2.85;;
29246;SDS011;16272;48.188;9.964;2022-10-28T18:18:34;9.07;;;2.77;;
29246;SDS011;16272;48.188;9.964;2022-10-28T18:21:00;9.15;;;3.10;;
29246;SDS011;16272;48.188;9.964;2022-10-28T18:23:26;9.10;;;3.20;;